FOOLDIAP

Guest
Details From FOOL - Leon M Ba
To DIAP - Abidjan Felix Houphouet Boigny Intl
Flight Number -
Tags Generated
Created
Modified
Stats Distance 851 nm / 1,577 km
Max Altitude 0 ft / 0 m
Waypoints 3
Social Downloads 6
Likes 0
Share VATSIM

Download

Looking for another format? Having issues loading an existing format? Contact us
Advertisement - Login to hide

Notes

Generated

Route

FOOL AD DIAP

ID Type Via Altitude Latitude Longitude Leg Dist Tot Dist Heading (true) Name
O FOOL APT - 0 ft / 0 m 0.47081˚ 9.40635˚ - 0 nm - -
AD VOR - 0 ft / 0 m 5.27719˚ -3.91931˚ 849 nm 849 nm 290° / 289° ABIDJAN VOR-DME
O DIAP APT - 0 ft / 0 m 5.24885˚ -3.93145˚ 1 nm 851 nm 203° / 203° -

Altitude Profile

Advertisement - Login to hide

Weather


0- 5 10 15 20 25 30 35+ Temperature / ° C

Clouds and Precipitation
Forecast for 2018-05-24 06:00 UTC. Updated 2 hours ago

Ground ~20,000 ft ~40,000 ft Winds

FOOL

Details ICAO FOOL (LBV)
Name Leon M Ba
Region Gabon
Timezone Africa/Libreville (UTC+1.0)
Stats Elevation 39 ft / 12 m (AMSL)
Location 0.458616° 9.412250°
Runways 1
Magnetic Variation 1.879° W

METAR

FOOL 240700Z 13006KT 9999 FEW010 OVC030 27/24 Q1014 NOSIG

Decode

TAF

TAF FOOL 240500Z 2406/2512 22008KT 9999 SCT012 FEW020CB BKN030 PROB30 TEMPO 2413/2418 3500 TSRA BKN008 FEW018CB OVC026

Decode

Departure Runways

ID Width Length Bearing (true) Bearing (mag) Surface Threshold Offset Overrun Length
16 148 ft / 45 m 9,889 ft / 3,014 m 154.19° 156.07° Asphalt 0 ft / 0 m 192 ft / 59 m
34 148 ft / 45 m 9,889 ft / 3,014 m 334.19° 336.07° Asphalt 0 ft / 0 m 209 ft / 64 m

DIAP

Details ICAO DIAP (ABJ)
Name Abidjan Felix Houphouet Boigny Intl
Region Côte d'Ivoire
Timezone Africa/Abidjan (UTC+0.0)
Stats Elevation 21 ft / 6 m (AMSL)
Location 5.261386° -3.926296°
Runways 1
Magnetic Variation 4.635° W

METAR

DIAP 240700Z 18003KT 9999 SCT011 28/26 Q1012 NOSIG

Decode

TAF

TAF DIAP 240500Z 2406/2512 18005KT 9999 SCT012 TEMPO 2416/2420 BKN012

Decode

Destination Runways

ID Width Length Bearing (true) Bearing (mag) Surface Threshold Offset Overrun Length
03 164 ft / 50 m 9,889 ft / 3,014 m 22.27° 26.91° Asphalt 0 ft / 0 m 197 ft / 60 m
21 164 ft / 50 m 9,889 ft / 3,014 m 202.27° 206.91° Asphalt 0 ft / 0 m 328 ft / 100 m

Approach Navaids

Runway Type Ident Frequency Range Bearing (true) Bearing (mag) Slope Elevation
21 Localiser AN 110.30 MHz 18 nm / 33 km 201.45° 206.09° - 13 ft / 4 m (AMSL)
21 Glidescope AN 110.30 MHz 10 nm / 19 km 202.27° 206.91° 3.00° 24 ft / 7 m (AMSL)
21 DME AN 110.30 MHz 18 nm / 33 km - - - 24 ft / 7 m (AMSL)

Popular Alternatives